sensor_id;sensor_type;location;lat;lon;timestamp;temperature;humidity
39033;DHT22;24794;51.982;5.878;2023-04-25T00:00:25;8.20;99.90
39033;DHT22;24794;51.982;5.878;2023-04-25T00:01:26;8.30;99.90
39033;DHT22;24794;51.982;5.878;2023-04-25T00:02:27;8.20;99.90
39033;DHT22;24794;51.982;5.878;2023-04-25T00:03:28;8.20;99.90
39033;DHT22;24794;51.982;5.878;2023-04-25T00:04:29;8.30;99.90
39033;DHT22;24794;51.982;5.878;2023-04-25T00:05:30;8.30;99.90
39033;DHT22;24794;51.982;5.878;2023-04-25T00:06:32;8.30;99.90
39033;DHT22;24794;51.982;5.878;2023-04-25T00:07:33;8.20;99.90
39033;DHT22;24794;51.982;5.878;2023-04-25T00:08:35;8.20;99.90
39033;DHT22;24794;51.982;5.878;2023-04-25T00:09:35;8.20;99.90
39033;DHT22;24794;51.982;5.878;2023-04-25T00:10:36;8.20;99.90
39033;DHT22;24794;51.982;5.878;2023-04-25T00:11:37;8.20;99.90
39033;DHT22;24794;51.982;5.878;2023-04-25T00:12:38;8.20;99.90
39033;DHT22;24794;51.982;5.878;2023-04-25T00:13:39;8.20;99.90
39033;DHT22;24794;51.982;5.878;2023-04-25T00:14:41;8.20;99.90
39033;DHT22;24794;51.982;5.878;2023-04-25T00:15:42;8.10;99.90
39033;DHT22;24794;51.982;5.878;2023-04-25T00:16:43;8.10;99.90
39033;DHT22;24794;51.982;5.878;2023-04-25T00:17:44;8.10;99.90
39033;DHT22;24794;51.982;5.878;2023-04-25T00:18:45;8.10;99.90
39033;DHT22;24794;51.982;5.878;2023-04-25T00:19:51;8.00;99.90
39033;DHT22;24794;51.982;5.878;2023-04-25T00:20:52;8.00;99.90
39033;DHT22;24794;51.982;5.878;2023-04-25T00:21:56;8.00;99.90
39033;DHT22;24794;51.982;5.878;2023-04-25T00:22:57;8.00;99.90
39033;DHT22;24794;51.982;5.878;2023-04-25T00:23:57;7.90;99.90
39033;DHT22;24794;51.982;5.878;2023-04-25T00:24:58;7.90;99.90
39033;DHT22;24794;51.982;5.878;2023-04-25T00:26:00;7.90;99.90
39033;DHT22;24794;51.982;5.878;2023-04-25T00:27:00;7.90;99.90
39033;DHT22;24794;51.982;5.878;2023-04-25T00:28:01;7.80;99.90
39033;DHT22;24794;51.982;5.878;2023-04-25T00:29:02;7.80;99.90
39033;DHT22;24794;51.982;5.878;2023-04-25T00:30:03;7.80;99.90
39033;DHT22;24794;51.982;5.878;2023-04-25T00:31:04;7.80;99.90
39033;DHT22;24794;51.982;5.878;2023-04-25T00:32:04;7.80;99.90
39033;DHT22;24794;51.982;5.878;2023-04-25T00:33:05;7.80;99.90
39033;DHT22;24794;51.982;5.878;2023-04-25T00:34:06;7.80;99.90
39033;DHT22;24794;51.982;5.878;2023-04-25T00:35:09;7.80;99.90
39033;DHT22;24794;51.982;5.878;2023-04-25T00:36:09;7.70;99.90
39033;DHT22;24794;51.982;5.878;2023-04-25T00:37:10;7.70;99.90
39033;DHT22;24794;51.982;5.878;2023-04-25T00:38:12;7.70;99.90
39033;DHT22;24794;51.982;5.878;2023-04-25T00:39:12;7.70;99.90
39033;DHT22;24794;51.982;5.878;2023-04-25T00:40:13;7.80;99.90
39033;DHT22;24794;51.982;5.878;2023-04-25T00:41:13;7.70;99.90
39033;DHT22;24794;51.982;5.878;2023-04-25T00:42:14;7.70;99.90
39033;DHT22;24794;51.982;5.878;2023-04-25T00:43:15;7.80;99.90
39033;DHT22;24794;51.982;5.878;2023-04-25T00:44:16;7.70;99.90
39033;DHT22;24794;51.982;5.878;2023-04-25T00:45:17;7.70;99.90
39033;DHT22;24794;51.982;5.878;2023-04-25T00:46:18;7.70;99.90
39033;DHT22;24794;51.982;5.878;2023-04-25T00:47:19;7.70;99.90
39033;DHT22;24794;51.982;5.878;2023-04-25T00:48:23;7.60;99.90
39033;DHT22;24794;51.982;5.878;2023-04-25T00:49:23;7.60;99.90
39033;DHT22;24794;51.982;5.878;2023-04-25T00:50:24;7.60;99.90
39033;DHT22;24794;51.982;5.878;2023-04-25T00:51:26;7.60;99.90
39033;DHT22;24794;51.982;5.878;2023-04-25T00:52:27;7.60;99.90
39033;DHT22;24794;51.982;5.878;2023-04-25T00:53:28;7.50;99.90
39033;DHT22;24794;51.982;5.878;2023-04-25T00:54:30;7.50;99.90
39033;DHT22;24794;51.982;5.878;2023-04-25T00:55:31;7.50;99.90
39033;DHT22;24794;51.982;5.878;2023-04-25T00:56:32;7.50;99.90
39033;DHT22;24794;51.982;5.878;2023-04-25T00:57:33;7.50;99.90
39033;DHT22;24794;51.982;5.878;2023-04-25T00:58:34;7.50;99.90
39033;DHT22;24794;51.982;5.878;2023-04-25T00:59:36;7.50;99.90
39033;DHT22;24794;51.982;5.878;2023-04-25T01:00:38;7.40;99.90
39033;DHT22;24794;51.982;5.878;2023-04-25T01:01:41;7.40;99.90
39033;DHT22;24794;51.982;5.878;2023-04-25T01:02:42;7.40;99.90
39033;DHT22;24794;51.982;5.878;2023-04-25T01:03:46;7.40;99.90
39033;DHT22;24794;51.982;5.878;2023-04-25T01:04:47;7.40;99.90
39033;DHT22;24794;51.982;5.878;2023-04-25T01:05:48;7.40;99.90
39033;DHT22;24794;51.982;5.878;2023-04-25T01:06:49;7.40;99.90
39033;DHT22;24794;51.982;5.878;2023-04-25T01:07:50;7.40;99.90
39033;DHT22;24794;51.982;5.878;2023-04-25T01:08:51;7.40;99.90
39033;DHT22;24794;51.982;5.878;2023-04-25T01:09:52;7.40;99.90
39033;DHT22;24794;51.982;5.878;2023-04-25T01:10:52;7.40;99.90
39033;DHT22;24794;51.982;5.878;2023-04-25T01:11:53;7.30;99.90
39033;DHT22;24794;51.982;5.878;2023-04-25T01:12:53;7.30;99.90
39033;DHT22;24794;51.982;5.878;2023-04-25T01:13:55;7.30;99.90
39033;DHT22;24794;51.982;5.878;2023-04-25T01:14:55;7.30;99.90
39033;DHT22;24794;51.982;5.878;2023-04-25T01:15:56;7.30;99.90
39033;DHT22;24794;51.982;5.878;2023-04-25T01:16:57;7.30;99.90
39033;DHT22;24794;51.982;5.878;2023-04-25T01:17:58;7.30;99.90
39033;DHT22;24794;51.982;5.878;2023-04-25T01:19:01;7.30;99.90
39033;DHT22;24794;51.982;5.878;2023-04-25T01:20:04;7.30;99.90
39033;DHT22;24794;51.982;5.878;2023-04-25T01:21:12;7.30;99.90
39033;DHT22;24794;51.982;5.878;2023-04-25T01:22:16;7.30;99.90
39033;DHT22;24794;51.982;5.878;2023-04-25T01:23:18;7.30;99.90
39033;DHT22;24794;51.982;5.878;2023-04-25T01:24:18;7.30;99.90
39033;DHT22;24794;51.982;5.878;2023-04-25T01:25:19;7.30;99.90
39033;DHT22;24794;51.982;5.878;2023-04-25T01:26:21;7.20;99.90
39033;DHT22;24794;51.982;5.878;2023-04-25T01:27:22;7.20;99.90
39033;DHT22;24794;51.982;5.878;2023-04-25T01:28:23;7.20;99.90
39033;DHT22;24794;51.982;5.878;2023-04-25T01:29:24;7.20;99.90
39033;DHT22;24794;51.982;5.878;2023-04-25T01:30:26;7.20;99.90
39033;DHT22;24794;51.982;5.878;2023-04-25T01:31:28;7.20;99.90
39033;DHT22;24794;51.982;5.878;2023-04-25T01:32:30;7.20;99.90
39033;DHT22;24794;51.982;5.878;2023-04-25T01:33:38;7.20;99.90
39033;DHT22;24794;51.982;5.878;2023-04-25T01:34:39;7.20;99.90
39033;DHT22;24794;51.982;5.878;2023-04-25T01:35:39;7.20;99.90
39033;DHT22;24794;51.982;5.878;2023-04-25T01:36:40;7.20;99.90
39033;DHT22;24794;51.982;5.878;2023-04-25T01:37:44;7.20;99.90
39033;DHT22;24794;51.982;5.878;2023-04-25T01:38:45;7.20;99.90
39033;DHT22;24794;51.982;5.878;2023-04-25T01:39:47;7.20;99.90
39033;DHT22;24794;51.982;5.878;2023-04-25T01:40:50;7.20;99.90
39033;DHT22;24794;51.982;5.878;2023-04-25T01:41:51;7.20;99.90
39033;DHT22;24794;51.982;5.878;2023-04-25T01:42:52;7.20;99.90
39033;DHT22;24794;51.982;5.878;2023-04-25T01:43:53;7.20;99.90
39033;DHT22;24794;51.982;5.878;2023-04-25T01:44:53;7.20;99.90
39033;DHT22;24794;51.982;5.878;2023-04-25T01:45:54;7.20;99.90
39033;DHT22;24794;51.982;5.878;2023-04-25T01:46:55;7.20;99.90
39033;DHT22;24794;51.982;5.878;2023-04-25T01:47:55;7.20;99.90
39033;DHT22;24794;51.982;5.878;2023-04-25T01:48:59;7.20;99.90
39033;DHT22;24794;51.982;5.878;2023-04-25T01:50:00;7.30;99.90
39033;DHT22;24794;51.982;5.878;2023-04-25T01:51:00;7.30;99.90
39033;DHT22;24794;51.982;5.878;2023-04-25T01:52:01;7.30;99.90
39033;DHT22;24794;51.982;5.878;2023-04-25T01:53:01;7.30;99.90
39033;DHT22;24794;51.982;5.878;2023-04-25T01:54:02;7.30;99.90
39033;DHT22;24794;51.982;5.878;2023-04-25T01:55:03;7.30;99.90
39033;DHT22;24794;51.982;5.878;2023-04-25T01:56:04;7.30;99.90
39033;DHT22;24794;51.982;5.878;2023-04-25T01:57:05;7.30;99.90
39033;DHT22;24794;51.982;5.878;2023-04-25T01:58:06;7.30;99.90
39033;DHT22;24794;51.982;5.878;2023-04-25T01:59:10;7.30;99.90
39033;DHT22;24794;51.982;5.878;2023-04-25T02:00:11;7.30;99.90
39033;DHT22;24794;51.982;5.878;2023-04-25T02:01:12;7.30;99.90
39033;DHT22;24794;51.982;5.878;2023-04-25T02:02:12;7.30;99.90
39033;DHT22;24794;51.982;5.878;2023-04-25T02:03:13;7.30;99.90
39033;DHT22;24794;51.982;5.878;2023-04-25T02:04:13;7.30;99.90
39033;DHT22;24794;51.982;5.878;2023-04-25T02:05:14;7.30;99.90
39033;DHT22;24794;51.982;5.878;2023-04-25T02:06:14;7.30;99.90
39033;DHT22;24794;51.982;5.878;2023-04-25T02:07:15;7.30;99.90
39033;DHT22;24794;51.982;5.878;2023-04-25T02:08:17;7.30;99.90
39033;DHT22;24794;51.982;5.878;2023-04-25T02:09:18;7.30;99.90
39033;DHT22;24794;51.982;5.878;2023-04-25T02:10:18;7.30;99.90
39033;DHT22;24794;51.982;5.878;2023-04-25T02:11:19;7.30;99.90
39033;DHT22;24794;51.982;5.878;2023-04-25T02:12:19;7.30;99.90
39033;DHT22;24794;51.982;5.878;2023-04-25T02:13:20;7.30;99.90
39033;DHT22;24794;51.982;5.878;2023-04-25T02:14:20;7.30;99.90
39033;DHT22;24794;51.982;5.878;2023-04-25T02:15:21;7.30;99.90
39033;DHT22;24794;51.982;5.878;2023-04-25T02:16:21;7.30;99.90
39033;DHT22;24794;51.982;5.878;2023-04-25T02:17:22;7.30;99.90
39033;DHT22;24794;51.982;5.878;2023-04-25T02:18:22;7.40;99.90
39033;DHT22;24794;51.982;5.878;2023-04-25T02:19:23;7.40;99.90
39033;DHT22;24794;51.982;5.878;2023-04-25T02:20:24;7.40;99.90
39033;DHT22;24794;51.982;5.878;2023-04-25T02:21:25;7.40;99.90
39033;DHT22;24794;51.982;5.878;2023-04-25T02:22:26;7.40;99.90
39033;DHT22;24794;51.982;5.878;2023-04-25T02:23:28;7.30;99.90
39033;DHT22;24794;51.982;5.878;2023-04-25T02:24:29;7.30;99.90
39033;DHT22;24794;51.982;5.878;2023-04-25T02:25:29;7.30;99.90
39033;DHT22;24794;51.982;5.878;2023-04-25T02:26:30;7.30;99.90
39033;DHT22;24794;51.982;5.878;2023-04-25T02:27:31;7.30;99.90
39033;DHT22;24794;51.982;5.878;2023-04-25T02:28:31;7.30;99.90
39033;DHT22;24794;51.982;5.878;2023-04-25T02:29:32;7.30;99.90
39033;DHT22;24794;51.982;5.878;2023-04-25T02:30:32;7.20;99.90
39033;DHT22;24794;51.982;5.878;2023-04-25T02:31:33;7.20;99.90
39033;DHT22;24794;51.982;5.878;2023-04-25T02:32:33;7.20;99.90
39033;DHT22;24794;51.982;5.878;2023-04-25T02:33:37;7.20;99.90
39033;DHT22;24794;51.982;5.878;2023-04-25T02:34:37;7.20;99.90
39033;DHT22;24794;51.982;5.878;2023-04-25T02:35:38;7.20;99.90
39033;DHT22;24794;51.982;5.878;2023-04-25T02:36:38;7.20;99.90
39033;DHT22;24794;51.982;5.878;2023-04-25T02:37:39;7.20;99.90
39033;DHT22;24794;51.982;5.878;2023-04-25T02:38:40;7.20;99.90
39033;DHT22;24794;51.982;5.878;2023-04-25T02:39:41;7.20;99.90
39033;DHT22;24794;51.982;5.878;2023-04-25T02:40:41;7.20;99.90
39033;DHT22;24794;51.982;5.878;2023-04-25T02:41:42;7.20;99.90
39033;DHT22;24794;51.982;5.878;2023-04-25T02:42:43;7.10;99.90
39033;DHT22;24794;51.982;5.878;2023-04-25T02:43:45;7.10;99.90
39033;DHT22;24794;51.982;5.878;2023-04-25T02:44:46;7.10;99.90
39033;DHT22;24794;51.982;5.878;2023-04-25T02:45:46;7.10;99.90
39033;DHT22;24794;51.982;5.878;2023-04-25T02:46:47;7.10;99.90
39033;DHT22;24794;51.982;5.878;2023-04-25T02:47:47;7.10;99.90
39033;DHT22;24794;51.982;5.878;2023-04-25T02:48:48;7.10;99.90
39033;DHT22;24794;51.982;5.878;2023-04-25T02:49:48;7.10;99.90
39033;DHT22;24794;51.982;5.878;2023-04-25T02:50:49;7.10;99.90
39033;DHT22;24794;51.982;5.878;2023-04-25T02:51:50;7.00;99.90
39033;DHT22;24794;51.982;5.878;2023-04-25T02:52:50;7.00;99.90
39033;DHT22;24794;51.982;5.878;2023-04-25T02:53:51;7.00;99.90
39033;DHT22;24794;51.982;5.878;2023-04-25T02:54:51;7.00;99.90
39033;DHT22;24794;51.982;5.878;2023-04-25T02:55:52;7.00;99.90
39033;DHT22;24794;51.982;5.878;2023-04-25T02:56:53;7.00;99.90
39033;DHT22;24794;51.982;5.878;2023-04-25T02:57:53;7.00;99.90
39033;DHT22;24794;51.982;5.878;2023-04-25T02:58:55;7.00;99.90
39033;DHT22;24794;51.982;5.878;2023-04-25T02:59:56;6.90;99.90
39033;DHT22;24794;51.982;5.878;2023-04-25T03:00:56;6.90;99.90
39033;DHT22;24794;51.982;5.878;2023-04-25T03:01:57;6.90;99.90
39033;DHT22;24794;51.982;5.878;2023-04-25T03:02:57;6.90;99.90
39033;DHT22;24794;51.982;5.878;2023-04-25T03:03:58;6.90;99.90
39033;DHT22;24794;51.982;5.878;2023-04-25T03:04:58;6.90;99.90
39033;DHT22;24794;51.982;5.878;2023-04-25T03:05:59;6.90;99.90
39033;DHT22;24794;51.982;5.878;2023-04-25T03:06:59;6.90;99.90
39033;DHT22;24794;51.982;5.878;2023-04-25T03:08:00;6.90;99.90
39033;DHT22;24794;51.982;5.878;2023-04-25T03:09:00;6.90;99.90
39033;DHT22;24794;51.982;5.878;2023-04-25T03:10:01;6.90;99.90
39033;DHT22;24794;51.982;5.878;2023-04-25T03:11:02;6.90;99.90
39033;DHT22;24794;51.982;5.878;2023-04-25T03:12:03;6.90;99.90
39033;DHT22;24794;51.982;5.878;2023-04-25T03:13:04;6.90;99.90
39033;DHT22;24794;51.982;5.878;2023-04-25T03:14:04;6.90;99.90
39033;DHT22;24794;51.982;5.878;2023-04-25T03:15:05;6.80;99.90
39033;DHT22;24794;51.982;5.878;2023-04-25T03:16:06;6.90;99.90
39033;DHT22;24794;51.982;5.878;2023-04-25T03:17:06;6.90;99.90
39033;DHT22;24794;51.982;5.878;2023-04-25T03:18:07;6.90;99.90
39033;DHT22;24794;51.982;5.878;2023-04-25T03:19:07;6.90;99.90
39033;DHT22;24794;51.982;5.878;2023-04-25T03:20:08;6.80;99.90
39033;DHT22;24794;51.982;5.878;2023-04-25T03:21:09;6.80;99.90
39033;DHT22;24794;51.982;5.878;2023-04-25T03:22:10;6.80;99.90
39033;DHT22;24794;51.982;5.878;2023-04-25T03:23:10;6.80;99.90
39033;DHT22;24794;51.982;5.878;2023-04-25T03:24:11;6.80;99.90
39033;DHT22;24794;51.982;5.878;2023-04-25T03:25:12;6.80;99.90
39033;DHT22;24794;51.982;5.878;2023-04-25T03:26:12;6.70;99.90
39033;DHT22;24794;51.982;5.878;2023-04-25T03:27:13;6.80;99.90
39033;DHT22;24794;51.982;5.878;2023-04-25T03:28:14;6.70;99.90
39033;DHT22;24794;51.982;5.878;2023-04-25T03:29:15;6.80;99.90
39033;DHT22;24794;51.982;5.878;2023-04-25T03:30:15;6.70;99.90
39033;DHT22;24794;51.982;5.878;2023-04-25T03:31:16;6.70;99.90
39033;DHT22;24794;51.982;5.878;2023-04-25T03:32:17;6.70;99.90
39033;DHT22;24794;51.982;5.878;2023-04-25T03:33:17;6.70;99.90
39033;DHT22;24794;51.982;5.878;2023-04-25T03:34:17;6.70;99.90
39033;DHT22;24794;51.982;5.878;2023-04-25T03:35:18;6.70;99.90
39033;DHT22;24794;51.982;5.878;2023-04-25T03:36:19;6.70;99.90
39033;DHT22;24794;51.982;5.878;2023-04-25T03:37:19;6.70;99.90
39033;DHT22;24794;51.982;5.878;2023-04-25T03:38:20;6.70;99.90
39033;DHT22;24794;51.982;5.878;2023-04-25T03:39:20;6.60;99.90
39033;DHT22;24794;51.982;5.878;2023-04-25T03:40:21;6.70;99.90
39033;DHT22;24794;51.982;5.878;2023-04-25T03:41:21;6.70;99.90
39033;DHT22;24794;51.982;5.878;2023-04-25T03:42:22;6.70;99.90
39033;DHT22;24794;51.982;5.878;2023-04-25T03:43:23;6.60;99.90
39033;DHT22;24794;51.982;5.878;2023-04-25T03:44:23;6.70;99.90
39033;DHT22;24794;51.982;5.878;2023-04-25T03:45:25;6.60;99.90
39033;DHT22;24794;51.982;5.878;2023-04-25T03:46:25;6.60;99.90
39033;DHT22;24794;51.982;5.878;2023-04-25T03:47:26;6.60;99.90
39033;DHT22;24794;51.982;5.878;2023-04-25T03:48:26;6.70;99.90
39033;DHT22;24794;51.982;5.878;2023-04-25T03:49:27;6.70;99.90
39033;DHT22;24794;51.982;5.878;2023-04-25T03:50:28;6.60;99.90
39033;DHT22;24794;51.982;5.878;2023-04-25T03:51:28;6.70;99.90
39033;DHT22;24794;51.982;5.878;2023-04-25T03:52:29;6.70;99.90
39033;DHT22;24794;51.982;5.878;2023-04-25T03:53:29;6.60;99.90
39033;DHT22;24794;51.982;5.878;2023-04-25T03:54:30;6.60;99.90
39033;DHT22;24794;51.982;5.878;2023-04-25T03:55:30;6.60;99.90
39033;DHT22;24794;51.982;5.878;2023-04-25T03:56:31;6.60;99.90
39033;DHT22;24794;51.982;5.878;2023-04-25T03:57:31;6.60;99.90
39033;DHT22;24794;51.982;5.878;2023-04-25T03:58:32;6.60;99.90
39033;DHT22;24794;51.982;5.878;2023-04-25T03:59:32;6.60;99.90
39033;DHT22;24794;51.982;5.878;2023-04-25T04:00:33;6.60;99.90
39033;DHT22;24794;51.982;5.878;2023-04-25T04:01:34;6.60;99.90
39033;DHT22;24794;51.982;5.878;2023-04-25T04:02:34;6.60;99.90
39033;DHT22;24794;51.982;5.878;2023-04-25T04:03:36;6.60;99.90
39033;DHT22;24794;51.982;5.878;2023-04-25T04:04:37;6.60;99.90
39033;DHT22;24794;51.982;5.878;2023-04-25T04:05:37;6.60;99.90
39033;DHT22;24794;51.982;5.878;2023-04-25T04:06:40;6.50;99.90
39033;DHT22;24794;51.982;5.878;2023-04-25T04:07:41;6.50;99.90
39033;DHT22;24794;51.982;5.878;2023-04-25T04:08:42;6.50;99.90
39033;DHT22;24794;51.982;5.878;2023-04-25T04:09:43;6.50;99.90
39033;DHT22;24794;51.982;5.878;2023-04-25T04:10:43;6.50;99.90
39033;DHT22;24794;51.982;5.878;2023-04-25T04:11:44;6.50;99.90
39033;DHT22;24794;51.982;5.878;2023-04-25T04:12:45;6.50;99.90
39033;DHT22;24794;51.982;5.878;2023-04-25T04:13:45;6.50;99.90
39033;DHT22;24794;51.982;5.878;2023-04-25T04:14:46;6.50;99.90
39033;DHT22;24794;51.982;5.878;2023-04-25T04:15:46;6.50;99.90
39033;DHT22;24794;51.982;5.878;2023-04-25T04:16:47;6.40;99.90
39033;DHT22;24794;51.982;5.878;2023-04-25T04:17:48;6.40;99.90
39033;DHT22;24794;51.982;5.878;2023-04-25T04:18:49;6.40;99.90
39033;DHT22;24794;51.982;5.878;2023-04-25T04:19:49;6.40;99.90
39033;DHT22;24794;51.982;5.878;2023-04-25T04:20:50;6.30;99.90
39033;DHT22;24794;51.982;5.878;2023-04-25T04:21:50;6.30;99.90
39033;DHT22;24794;51.982;5.878;2023-04-25T04:22:51;6.30;99.90
39033;DHT22;24794;51.982;5.878;2023-04-25T04:23:51;6.30;99.90
39033;DHT22;24794;51.982;5.878;2023-04-25T04:24:52;6.30;99.90
39033;DHT22;24794;51.982;5.878;2023-04-25T04:25:55;6.30;99.90
39033;DHT22;24794;51.982;5.878;2023-04-25T04:26:56;6.30;99.90
39033;DHT22;24794;51.982;5.878;2023-04-25T04:27:57;6.20;99.90
39033;DHT22;24794;51.982;5.878;2023-04-25T04:28:59;6.20;99.90
39033;DHT22;24794;51.982;5.878;2023-04-25T04:29:59;6.20;99.90
39033;DHT22;24794;51.982;5.878;2023-04-25T04:31:00;6.20;99.90
39033;DHT22;24794;51.982;5.878;2023-04-25T04:32:01;6.20;99.90
39033;DHT22;24794;51.982;5.878;2023-04-25T04:33:02;6.20;99.90
39033;DHT22;24794;51.982;5.878;2023-04-25T04:34:03;6.20;99.90
39033;DHT22;24794;51.982;5.878;2023-04-25T04:35:04;6.20;99.90
39033;DHT22;24794;51.982;5.878;2023-04-25T04:36:06;6.20;99.90
39033;DHT22;24794;51.982;5.878;2023-04-25T04:37:08;6.20;99.90
39033;DHT22;24794;51.982;5.878;2023-04-25T04:38:10;6.20;99.90
39033;DHT22;24794;51.982;5.878;2023-04-25T04:39:12;6.20;99.90
39033;DHT22;24794;51.982;5.878;2023-04-25T04:40:14;6.20;99.90
39033;DHT22;24794;51.982;5.878;2023-04-25T04:41:15;6.20;99.90
39033;DHT22;24794;51.982;5.878;2023-04-25T04:42:16;6.20;99.90
39033;DHT22;24794;51.982;5.878;2023-04-25T04:43:17;6.20;99.90
39033;DHT22;24794;51.982;5.878;2023-04-25T04:44:19;6.30;99.90
39033;DHT22;24794;51.982;5.878;2023-04-25T04:45:20;6.30;99.90
39033;DHT22;24794;51.982;5.878;2023-04-25T04:46:20;6.20;99.90
39033;DHT22;24794;51.982;5.878;2023-04-25T04:47:21;6.20;99.90
39033;DHT22;24794;51.982;5.878;2023-04-25T04:48:23;6.30;99.90
39033;DHT22;24794;51.982;5.878;2023-04-25T04:49:24;6.30;99.90
39033;DHT22;24794;51.982;5.878;2023-04-25T04:50:25;6.30;99.90
39033;DHT22;24794;51.982;5.878;2023-04-25T04:51:26;6.30;99.90
39033;DHT22;24794;51.982;5.878;2023-04-25T04:52:27;6.30;99.90
39033;DHT22;24794;51.982;5.878;2023-04-25T04:53:28;6.30;99.90
39033;DHT22;24794;51.982;5.878;2023-04-25T04:54:28;6.30;99.90
39033;DHT22;24794;51.982;5.878;2023-04-25T04:55:29;6.20;99.90
39033;DHT22;24794;51.982;5.878;2023-04-25T04:56:30;6.20;99.90
39033;DHT22;24794;51.982;5.878;2023-04-25T04:57:34;6.20;99.90
39033;DHT22;24794;51.982;5.878;2023-04-25T04:58:36;6.20;99.90
39033;DHT22;24794;51.982;5.878;2023-04-25T04:59:36;6.20;99.90
39033;DHT22;24794;51.982;5.878;2023-04-25T05:00:37;6.20;99.90
39033;DHT22;24794;51.982;5.878;2023-04-25T05:01:38;6.20;99.90
39033;DHT22;24794;51.982;5.878;2023-04-25T05:02:39;6.30;99.90
39033;DHT22;24794;51.982;5.878;2023-04-25T05:03:39;6.30;99.90
39033;DHT22;24794;51.982;5.878;2023-04-25T05:04:40;6.30;99.90
39033;DHT22;24794;51.982;5.878;2023-04-25T05:05:41;6.40;99.90
39033;DHT22;24794;51.982;5.878;2023-04-25T05:06:42;6.40;99.90
39033;DHT22;24794;51.982;5.878;2023-04-25T05:07:42;6.40;99.90
39033;DHT22;24794;51.982;5.878;2023-04-25T05:08:43;6.50;99.90
39033;DHT22;24794;51.982;5.878;2023-04-25T05:09:44;6.50;99.90
39033;DHT22;24794;51.982;5.878;2023-04-25T05:10:44;6.60;99.90
39033;DHT22;24794;51.982;5.878;2023-04-25T05:11:45;6.60;99.90
39033;DHT22;24794;51.982;5.878;2023-04-25T05:12:46;6.70;99.90
39033;DHT22;24794;51.982;5.878;2023-04-25T05:13:46;6.70;99.90
39033;DHT22;24794;51.982;5.878;2023-04-25T05:14:47;6.70;99.90
39033;DHT22;24794;51.982;5.878;2023-04-25T05:15:48;6.80;99.90
39033;DHT22;24794;51.982;5.878;2023-04-25T05:16:48;6.80;99.90
39033;DHT22;24794;51.982;5.878;2023-04-25T05:17:49;6.80;99.90
39033;DHT22;24794;51.982;5.878;2023-04-25T05:18:49;6.90;99.90
39033;DHT22;24794;51.982;5.878;2023-04-25T05:19:50;6.90;99.90
39033;DHT22;24794;51.982;5.878;2023-04-25T05:20:51;7.00;99.90
39033;DHT22;24794;51.982;5.878;2023-04-25T05:21:51;7.00;99.90
39033;DHT22;24794;51.982;5.878;2023-04-25T05:22:52;7.00;99.90
39033;DHT22;24794;51.982;5.878;2023-04-25T05:23:53;7.10;99.90
39033;DHT22;24794;51.982;5.878;2023-04-25T05:24:54;7.10;99.90
39033;DHT22;24794;51.982;5.878;2023-04-25T05:25:55;7.10;99.90
39033;DHT22;24794;51.982;5.878;2023-04-25T05:26:56;7.20;99.90
39033;DHT22;24794;51.982;5.878;2023-04-25T05:27:56;7.20;99.90
39033;DHT22;24794;51.982;5.878;2023-04-25T05:28:57;7.20;99.90
39033;DHT22;24794;51.982;5.878;2023-04-25T05:29:58;7.20;99.90
39033;DHT22;24794;51.982;5.878;2023-04-25T05:30:58;7.20;99.90
39033;DHT22;24794;51.982;5.878;2023-04-25T05:31:59;7.20;99.90
39033;DHT22;24794;51.982;5.878;2023-04-25T05:32:59;7.20;99.90
39033;DHT22;24794;51.982;5.878;2023-04-25T05:34:02;7.20;99.90
39033;DHT22;24794;51.982;5.878;2023-04-25T05:35:02;7.20;99.90
39033;DHT22;24794;51.982;5.878;2023-04-25T05:36:03;7.20;99.90
39033;DHT22;24794;51.982;5.878;2023-04-25T05:37:04;7.20;99.90
39033;DHT22;24794;51.982;5.878;2023-04-25T05:38:05;7.20;99.90
39033;DHT22;24794;51.982;5.878;2023-04-25T05:39:05;7.20;99.90
39033;DHT22;24794;51.982;5.878;2023-04-25T05:40:07;7.20;99.90
39033;DHT22;24794;51.982;5.878;2023-04-25T05:41:07;7.20;99.90
39033;DHT22;24794;51.982;5.878;2023-04-25T05:42:08;7.20;99.90
39033;DHT22;24794;51.982;5.878;2023-04-25T05:43:09;7.20;99.90
39033;DHT22;24794;51.982;5.878;2023-04-25T05:44:09;7.20;99.90
39033;DHT22;24794;51.982;5.878;2023-04-25T05:45:10;7.20;99.90
39033;DHT22;24794;51.982;5.878;2023-04-25T05:46:11;7.20;99.90
39033;DHT22;24794;51.982;5.878;2023-04-25T05:47:11;7.20;99.90
39033;DHT22;24794;51.982;5.878;2023-04-25T05:48:12;7.20;99.90
39033;DHT22;24794;51.982;5.878;2023-04-25T05:49:12;7.20;99.90
39033;DHT22;24794;51.982;5.878;2023-04-25T05:50:13;7.30;99.90
39033;DHT22;24794;51.982;5.878;2023-04-25T05:51:14;7.30;99.90
39033;DHT22;24794;51.982;5.878;2023-04-25T05:52:14;7.30;99.90
39033;DHT22;24794;51.982;5.878;2023-04-25T05:53:16;7.30;99.90
39033;DHT22;24794;51.982;5.878;2023-04-25T05:54:17;7.30;99.90
39033;DHT22;24794;51.982;5.878;2023-04-25T05:55:17;7.30;99.90
39033;DHT22;24794;51.982;5.878;2023-04-25T05:56:18;7.30;99.90
39033;DHT22;24794;51.982;5.878;2023-04-25T05:57:26;7.40;99.90
39033;DHT22;24794;51.982;5.878;2023-04-25T05:58:27;7.40;99.90
39033;DHT22;24794;51.982;5.878;2023-04-25T05:59:27;7.40;99.90
39033;DHT22;24794;51.982;5.878;2023-04-25T06:00:28;7.40;99.90
39033;DHT22;24794;51.982;5.878;2023-04-25T06:01:29;7.40;99.90
39033;DHT22;24794;51.982;5.878;2023-04-25T06:02:29;7.50;99.90
39033;DHT22;24794;51.982;5.878;2023-04-25T06:03:30;7.50;99.90
39033;DHT22;24794;51.982;5.878;2023-04-25T06:04:30;7.50;99.90
39033;DHT22;24794;51.982;5.878;2023-04-25T06:05:31;7.50;99.90
39033;DHT22;24794;51.982;5.878;2023-04-25T06:06:31;7.60;99.90
39033;DHT22;24794;51.982;5.878;2023-04-25T06:07:32;7.60;99.90
39033;DHT22;24794;51.982;5.878;2023-04-25T06:08:33;7.60;99.90
39033;DHT22;24794;51.982;5.878;2023-04-25T06:09:34;7.60;99.90
39033;DHT22;24794;51.982;5.878;2023-04-25T06:10:35;7.60;99.90
39033;DHT22;24794;51.982;5.878;2023-04-25T06:11:36;7.60;99.90
39033;DHT22;24794;51.982;5.878;2023-04-25T06:12:36;7.60;99.90
39033;DHT22;24794;51.982;5.878;2023-04-25T06:13:38;7.70;99.90
39033;DHT22;24794;51.982;5.878;2023-04-25T06:14:39;7.70;99.90
39033;DHT22;24794;51.982;5.878;2023-04-25T06:15:39;7.70;99.90
39033;DHT22;24794;51.982;5.878;2023-04-25T06:16:40;7.70;99.90
39033;DHT22;24794;51.982;5.878;2023-04-25T06:17:40;7.80;99.90
39033;DHT22;24794;51.982;5.878;2023-04-25T06:18:41;7.70;99.90
39033;DHT22;24794;51.982;5.878;2023-04-25T06:19:42;7.80;99.90
39033;DHT22;24794;51.982;5.878;2023-04-25T06:20:42;7.80;99.90
39033;DHT22;24794;51.982;5.878;2023-04-25T06:21:44;7.80;99.90
39033;DHT22;24794;51.982;5.878;2023-04-25T06:22:44;7.80;99.90
39033;DHT22;24794;51.982;5.878;2023-04-25T06:23:45;7.80;99.90
39033;DHT22;24794;51.982;5.878;2023-04-25T06:24:45;7.80;99.90
39033;DHT22;24794;51.982;5.878;2023-04-25T06:25:46;7.80;99.90
39033;DHT22;24794;51.982;5.878;2023-04-25T06:26:47;7.80;99.90
39033;DHT22;24794;51.982;5.878;2023-04-25T06:27:47;7.80;99.90
39033;DHT22;24794;51.982;5.878;2023-04-25T06:28:48;7.80;99.90
39033;DHT22;24794;51.982;5.878;2023-04-25T06:29:49;7.80;99.90
39033;DHT22;24794;51.982;5.878;2023-04-25T06:30:50;7.90;99.90